Latest Weather Observations for Port Augusta

IDS60801

Issued at 10:01 am CDT Tuesday 17 October 2017 (issued every 30 minutes, with the page automatically refreshed every 10 minutes)

About weather observations | Map of weather stations | Latest weather observations for SA | Other Formats
Station Details ID: 018201 Name: PORT AUGUSTA AERO Lat: -32.51 Lon: 137.72 Height: 13.97 m
Data from the previous 72 hours. | See also: Recent months at Port Augusta
Date/Time
CDT
Temp
°C
App
Temp
°C
Dew
Point
°C
Rel
Hum
%
Delta-T
°C
Wind Press
QNH
hPa
Press
MSL
hPa
Rain since
9am
mm
Dir  Spd
km/h
Gust
km/h
Spd
kts
Gust
kts
17/10:00am 30.6 24.9 6.5 22 12.9 N 26 37 14 20 1016.4 1016.3 0.0
17/09:30am 29.6 24.6 6.3 23 12.3 N 22 32 12 17 1016.5 1016.4 0.0
17/09:00am 28.0 23.5 6.2 25 11.4 N 19 22 10 12 1016.6 1016.5 0.0
17/08:30am 25.8 23.3 6.4 29 10.1 N 9 13 5 7 1016.7 1016.6 0.0
17/08:00am 22.3 21.4 6.1 35 8.2 CALM 0 0 0 0 1016.5 1016.4 0.0
17/07:30am 18.8 17.6 6.3 44 6.2 W 2 9 1 5 1016.6 1016.5 0.0
17/07:00am 15.9 12.8 5.5 50 5.0 W 11 15 6 8 1016.1 1016.0 0.0
17/06:30am 15.6 13.3 5.5 51 4.8 WNW 7 17 4 9 1015.9 1015.8 0.0
17/06:00am 16.1 15.1 5.7 50 5.0 CALM 0 0 0 0 1015.5 1015.4 0.0
17/05:30am 16.5 15.5 5.5 48 5.3 CALM 0 0 0 0 1015.2 1015.1 0.0
17/05:00am 16.8 14.6 5.1 46 5.6 WNW 6 7 3 4 1015.1 1015.0 0.0
17/04:30am 21.5 18.0 5.4 35 8.0 NNE 13 15 7 8 1015.0 1014.9 0.0
17/04:00am 23.1 19.0 6.4 34 8.5 NE 17 22 9 12 1014.8 1014.7 0.0
17/03:30am 20.2 16.4 5.8 39 7.1 ENE 15 19 8 10 1015.0 1014.9 0.0
17/03:00am 20.1 16.0 6.1 40 7.0 ENE 17 20 9 11 1015.0 1014.9 0.0
17/02:30am 20.6 16.5 6.2 39 7.2 ESE 17 22 9 12 1015.1 1015.0 0.0
17/02:00am 21.2 18.6 5.9 37 7.7 ESE 9 15 5 8 1015.2 1015.1 0.0
17/01:30am 21.4 18.4 6.1 37 7.7 E 11 15 6 8 1015.4 1015.3 0.0
17/01:00am 24.3 20.0 5.1 29 9.7 NE 17 19 9 10 1015.7 1015.6 0.0
17/12:30am 24.6 20.3 5.4 29 9.7 NE 17 19 9 10 1016.0 1015.9 0.0
17/12:00am 25.4 20.8 5.6 28 10.1 NE 19 22 10 12 1016.2 1016.1 0.0
 
Date/Time
CDT
Temp
°C
App
Temp
°C
Dew
Point
°C
Rel
Hum
%
Delta-T
°C
Wind Press
QNH
hPa
Press
MSL
hPa
Rain since
9am
mm
Dir  Spd
km/h
Gust
km/h
Spd
kts
Gust
kts
16/11:30pm 22.4 18.1 5.4 33 8.5 NE 17 20 9 11 1016.4 1016.3 0.0
16/11:00pm 23.2 20.7 6.5 34 8.6 ENE 9 13 5 7 1016.3 1016.2 0.0
16/10:30pm 22.6 18.8 6.0 34 8.4 NE 15 17 8 9 1016.2 1016.1 0.0
16/10:00pm 23.2 19.5 6.1 33 8.7 NE 15 17 8 9 1016.0 1015.9 0.0
16/09:30pm 24.9 20.8 6.1 30 9.7 ENE 17 19 9 10 1015.8 1015.7 0.0
16/09:00pm 25.9 22.1 6.0 28 10.3 NE 15 17 8 9 1015.4 1015.3 0.0
16/08:30pm 28.1 23.9 5.6 24 11.7 NE 17 20 9 11 1015.0 1014.9 0.0
16/08:00pm 29.3 24.7 5.4 22 12.5 NE 19 22 10 12 1014.7 1014.6 0.0
16/07:30pm 30.5 25.6 5.0 20 13.3 NE 20 28 11 15 1014.4 1014.3 0.0
16/07:00pm 31.8 26.0 4.6 18 14.2 NE 24 30 13 16 1014.0 1013.9 0.0
16/06:30pm 33.0 27.6 4.7 17 14.9 NE 22 30 12 16 1014.0 1013.9 0.0
16/06:00pm 33.7 27.9 4.4 16 15.4 NE 24 33 13 18 1013.9 1013.8 0.0
16/05:30pm 34.4 29.5 4.0 15 16.0 NE 19 30 10 16 1013.8 1013.7 0.0
16/05:00pm 34.8 29.4 4.4 15 16.1 ENE 22 30 12 16 1013.6 1013.5 0.0
16/04:30pm 34.7 28.5 2.3 13 16.6 NNE 24 35 13 19 1013.7 1013.6 0.0
16/04:00pm 34.2 28.7 3.9 15 15.9 NE 22 37 12 20 1013.9 1013.8 0.0
16/03:30pm 35.5 29.2 3.9 14 16.7 NNE 26 43 14 23 1014.1 1014.0 0.0
16/03:00pm 34.7 28.7 3.3 14 16.3 NNE 24 37 13 20 1014.5 1014.4 0.0
16/02:30pm 34.8 30.1 5.3 16 15.8 NNE 19 35 10 19 1014.8 1014.7 0.0
16/02:00pm 34.4 30.4 5.0 16 15.7 ENE 15 28 8 15 1015.3 1015.2 0.0
16/01:30pm 33.7 29.2 4.4 16 15.4 NNE 17 30 9 16 1015.7 1015.6 0.0
16/01:00pm 33.3 28.2 4.1 16 15.3 N 20 35 11 19 1016.1 1016.0 0.0
16/12:30pm 31.6 28.2 5.9 20 13.7 NE 13 22 7 12 1016.4 1016.3 0.0
16/12:00pm 32.2 27.6 6.4 20 13.9 NE 20 35 11 19 1016.9 1016.8 0.0
16/11:30am 32.3 29.2 7.2 21 13.7 NNE 13 20 7 11 1017.4 1017.3 0.0
16/11:00am 30.2 28.3 7.4 24 12.4 SE 7 11 4 6 1017.8 1017.7 0.0
16/10:30am 30.3 28.6 7.5 24 12.4 NE 6 11 3 6 1018.1 1018.0 0.0
16/10:00am 29.5 27.6 7.4 25 11.9 NNE 7 13 4 7 1018.5 1018.4 0.0
16/09:30am 28.4 26.4 7.1 26 11.4 ENE 7 11 4 6 1018.5 1018.4 0.0
16/09:00am 27.5 24.0 7.4 28 10.7 ENE 15 24 8 13 1018.6 1018.5 0.0
16/08:30am 26.9 22.7 7.4 29 10.4 ENE 19 26 10 14 1018.6 1018.5 0.0
16/08:00am 24.3 20.5 7.4 34 8.9 SSE 17 24 9 13 1018.5 1018.4 0.0
16/07:30am 22.8 19.8 7.8 38 7.8 SE 13 17 7 9 1018.6 1018.5 0.0
16/07:00am 20.8 18.0 8.4 45 6.5 SSE 13 19 7 10 1018.1 1018.0 0.0
16/06:30am 19.8 15.5 7.9 46 6.1 SSE 20 22 11 12 1017.8 1017.7 0.0
16/06:00am 17.9 14.9 7.9 52 5.1 SSE 13 17 7 9 1017.5 1017.4 0.0
16/05:30am 18.4 15.7 7.5 49 5.5 SE 11 13 6 7 1017.2 1017.1 0.0
16/05:00am 19.5 16.5 7.6 46 6.1 SE 13 17 7 9 1017.0 1016.9 0.0
16/04:30am 19.0 15.9 7.4 47 5.9 SE 13 15 7 8 1016.9 1016.8 0.0
16/04:00am 18.6 15.5 7.4 48 5.7 SE 13 17 7 9 1017.0 1016.9 0.0
16/03:30am 18.6 15.8 7.1 47 5.8 SE 11 15 6 8 1017.2 1017.1 0.0
16/03:00am 17.8 15.4 7.0 49 5.4 S 9 13 5 7 1017.4 1017.3 0.0
16/02:30am 16.6 15.0 7.8 56 4.4 S 6 7 3 4 1017.6 1017.5 0.0
16/02:00am 16.5 16.0 8.0 57 4.3 CALM 0 0 0 0 1017.9 1017.8 0.0
16/01:30am 18.0 16.3 8.3 53 5.0 SSE 7 13 4 7 1018.2 1018.1 0.0
16/01:00am 17.3 15.4 9.2 59 4.2 SSW 9 11 5 6 1018.6 1018.5 0.0
16/12:30am 19.4 16.9 12.4 64 3.9 ESE 17 22 9 12 1018.6 1018.5 0.0
16/12:00am 18.9 16.4 12.4 66 3.6 ESE 17 20 9 11 1018.6 1018.5 0.0
 
Date/Time
CDT
Temp
°C
App
Temp
°C
Dew
Point
°C
Rel
Hum
%
Delta-T
°C
Wind Press
QNH
hPa
Press
MSL
hPa
Rain since
9am
mm
Dir  Spd
km/h
Gust
km/h
Spd
kts
Gust
kts
15/11:30pm 18.1 16.5 11.4 65 3.6 ESE 11 15 6 8 1018.6 1018.5 0.0
15/11:00pm 18.0 16.6 10.9 63 3.8 E 9 11 5 6 1018.4 1018.3 0.0
15/10:30pm 19.2 18.9 10.2 56 4.8 N 2 6 1 3 1018.4 1018.3 0.0
15/10:00pm 20.6 17.7 9.5 49 5.9 SE 15 20 8 11 1018.1 1018.0 0.0
15/09:30pm 20.4 17.1 9.6 50 5.8 SE 17 22 9 12 1017.9 1017.8 0.0
15/09:00pm 20.2 16.9 10.9 55 5.1 SE 19 26 10 14 1017.7 1017.6 0.0
15/08:30pm 20.4 17.0 12.6 61 4.4 SE 22 30 12 16 1017.7 1017.6 0.0
15/08:00pm 20.9 17.3 11.8 56 5.1 SE 22 30 12 16 1017.6 1017.5 0.0
15/07:30pm 22.3 17.8 10.1 46 6.6 SE 24 35 13 19 1017.3 1017.2 0.0
15/07:00pm 23.1 19.7 12.4 51 6.1 SE 22 32 12 17 1017.0 1016.9 0.0
15/06:30pm 24.2 20.6 11.9 46 7.0 SE 22 32 12 17 1016.9 1016.8 0.0
15/06:00pm 26.8 21.4 7.8 30 10.2 SE 26 33 14 18 1016.7 1016.6 0.0
15/05:30pm 27.7 21.5 4.1 22 11.9 SE 26 33 14 18 1016.6 1016.5 0.0
15/05:00pm 27.9 21.8 4.9 23 11.8 SE 26 35 14 19 1016.5 1016.4 0.0
15/04:30pm 28.5 23.0 4.1 21 12.4 SE 22 30 12 16 1016.6 1016.5 0.0
15/04:00pm 28.2 23.2 4.5 22 12.1 SSE 20 33 11 18 1016.8 1016.7 0.0
15/03:30pm 27.8 22.5 4.8 23 11.8 SE 22 32 12 17 1017.1 1017.0 0.0
15/03:00pm 28.3 24.0 5.2 23 11.9 SSE 17 28 9 15 1017.5 1017.4 0.0
15/02:30pm 27.2 22.6 3.7 22 11.7 SSE 17 30 9 16 1017.8 1017.7 0.0
15/02:00pm 27.3 23.2 4.4 23 11.6 SE 15 30 8 16 1018.2 1018.1 0.0
15/01:30pm 26.1 22.1 5.1 26 10.7 SSE 15 22 8 12 1018.6 1018.5 0.0
15/01:00pm 26.7 22.9 5.6 26 10.9 SSE 15 24 8 13 1018.9 1018.8 0.0
15/12:30pm 25.3 20.7 5.5 28 10.1 SE 19 30 10 16 1019.5 1019.4 0.0
15/12:00pm 25.0 20.2 4.7 27 10.2 SE 19 26 10 14 1020.0 1019.9 0.0
15/11:30am 25.2 20.8 4.9 27 10.2 ESE 17 24 9 13 1020.4 1020.3 0.0
15/11:00am 23.5 19.7 5.9 32 8.9 SE 15 22 8 12 1020.8 1020.7 0.0
15/10:30am 22.8 19.2 6.6 35 8.3 SE 15 24 8 13 1021.2 1021.1 0.0
15/10:00am 22.1 18.4 6.3 36 8.0 ESE 15 22 8 12 1021.3 1021.2 0.0
15/09:30am 21.3 17.2 6.4 38 7.5 SE 17 26 9 14 1021.3 1021.2 0.0
15/09:00am 21.1 16.8 7.0 40 7.2 ESE 19 28 10 15 1021.1 1021.0 0.0
15/08:30am 20.0 16.9 7.4 44 6.4 ESE 13 20 7 11 1021.2 1021.1 0.0
15/08:00am 17.9 14.3 8.2 53 5.0 SSE 17 19 9 10 1021.2 1021.1 0.0
15/07:30am 16.5 13.4 8.7 60 4.0 SSE 15 19 8 10 1021.0 1020.9 0.0
15/07:00am 14.9 12.1 8.4 65 3.3 SE 13 17 7 9 1020.6 1020.5 0.0
15/06:30am 14.1 12.6 8.3 68 2.9 E 6 7 3 4 1020.5 1020.4 0.0
15/06:00am 15.5 12.7 8.7 64 3.5 SE 13 17 7 9 1020.1 1020.0 0.0
15/05:30am 16.0 12.5 8.7 62 3.7 SE 17 24 9 13 1019.6 1019.5 0.0
15/05:00am 16.1 12.2 8.8 62 3.7 SE 19 24 10 13 1019.6 1019.5 0.0
15/04:30am 16.3 12.5 9.0 62 3.7 SE 19 26 10 14 1019.6 1019.5 0.0
15/04:00am 16.5 12.4 8.7 60 4.0 SE 20 30 11 16 1019.7 1019.6 0.0
15/03:30am 16.8 12.7 8.8 59 4.1 SE 20 28 11 15 1019.7 1019.6 0.0
15/03:00am 17.5 13.6 8.6 56 4.6 SE 19 26 10 14 1019.9 1019.8 0.0
15/02:30am 17.7 14.5 8.3 54 4.8 SE 15 24 8 13 1020.1 1020.0 0.0
15/02:00am 17.5 14.8 7.5 52 5.0 SE 11 15 6 8 1020.2 1020.1 0.0
15/01:30am 17.1 14.4 8.8 58 4.3 SSE 13 17 7 9 1020.6 1020.5 0.0
15/01:00am 17.1 13.3 9.8 62 3.8 SE 20 24 11 13 1020.7 1020.6 0.0
15/12:30am 17.6 14.0 10.0 61 4.0 SE 19 24 10 13 1020.7 1020.6 0.0
15/12:00am 18.0 14.5 10.1 60 4.2 SE 19 24 10 13 1020.8 1020.7 0.0
 
Date/Time
CDT
Temp
°C
App
Temp
°C
Dew
Point
°C
Rel
Hum
%
Delta-T
°C
Wind Press
QNH
hPa
Press
MSL
hPa
Rain since
9am
mm
Dir  Spd
km/h
Gust
km/h
Spd
kts
Gust
kts
14/11:30pm 18.4 14.7 10.3 59 4.3 SSE 20 28 11 15 1020.7 1020.6 0.0
14/11:00pm 18.4 12.6 10.8 61 4.1 SSE 32 41 17 22 1020.5 1020.4 0.0
14/10:30pm 18.6 12.8 10.9 61 4.2 SSE 32 44 17 24 1020.5 1020.4 0.0
14/10:00pm 18.8 13.0 11.6 63 4.0 SSE 33 44 18 24 1020.5 1020.4 0.0
14/09:30pm 18.5 13.5 11.1 62 4.0 SE 28 39 15 21 1020.4 1020.3 0.0
14/09:00pm 18.1 13.9 11.2 64 3.7 SE 24 32 13 17 1020.4 1020.3 0.0
14/08:30pm 18.6 12.8 10.7 60 4.2 SE 32 41 17 22 1020.2 1020.1 0.0
14/08:00pm 18.7 15.6 13.3 71 3.1 SE 22 32 12 17 1020.2 1020.1 0.0
14/07:30pm 19.3 16.2 13.3 68 3.4 SE 22 33 12 18 1019.8 1019.7 0.0
14/07:00pm 20.8 17.3 13.3 62 4.3 SE 24 32 13 17 1019.5 1019.4 0.0
14/06:30pm 22.9 17.4 10.7 46 6.7 SE 30 39 16 21 1019.3 1019.2 0.0
14/06:00pm 23.6 17.8 9.6 41 7.6 SE 30 41 16 22 1019.1 1019.0 0.0
14/05:30pm 24.5 18.8 8.5 36 8.6 SE 28 35 15 19 1019.1 1019.0 0.0
14/05:00pm 24.7 19.0 8.2 35 8.8 SE 28 39 15 21 1019.0 1018.9 0.0
14/04:30pm 25.0 18.9 8.1 34 9.0 SE 30 41 16 22 1019.2 1019.1 0.0
14/04:00pm 24.8 19.1 8.3 35 8.8 SE 28 35 15 19 1019.4 1019.3 0.0
14/03:30pm 25.6 20.5 5.8 28 10.1 SE 22 32 12 17 1019.7 1019.6 0.0
14/03:00pm 25.4 20.4 3.4 24 10.8 S 19 26 10 14 1020.0 1019.9 0.0
14/02:30pm 24.7 21.3 6.0 30 9.6 SE 13 24 7 13 1020.6 1020.5 0.0
14/02:00pm 25.4 21.8 6.6 30 9.8 ESE 15 24 8 13 1021.1 1021.0 0.0
14/01:30pm 24.5 21.3 6.7 32 9.2 SE 13 24 7 13 1021.6 1021.5 0.0
14/01:00pm 23.3 20.6 7.4 36 8.3 SE 11 20 6 11 1022.0 1021.9 0.0
14/12:30pm 22.8 20.1 7.4 37 8.0 SE 11 19 6 10 1022.4 1022.3 0.0
14/12:00pm 22.3 19.4 8.1 40 7.4 SSE 13 20 7 11 1022.7 1022.6 0.0
14/11:30am 22.0 18.9 7.4 39 7.5 SE 13 22 7 12 1023.2 1023.1 0.0
14/11:00am 21.6 19.4 7.8 41 7.2 E 9 17 5 9 1023.5 1023.4 0.0
14/10:30am 20.1 17.2 8.1 46 6.2 SE 13 19 7 10 1023.6 1023.5 0.0

Other Formats:

Comma delimited format used in spreadsheet applications
http://www.bom.gov.au/fwo/IDS60801/IDS60801.95666.axf

JavaScript Object Notation format (JSON) in row-major order
http://www.bom.gov.au/fwo/IDS60801/IDS60801.95666.json